createdAt,value
2022-09-28T00:00:18.334Z,48.80
2022-09-28T00:02:45.327Z,48.90
2022-09-28T00:05:13.807Z,48.70
2022-09-28T00:07:40.592Z,48.70
2022-09-28T00:10:07.800Z,48.80
2022-09-28T00:12:34.650Z,48.60
2022-09-28T00:15:01.535Z,48.70
2022-09-28T00:17:28.391Z,49.00
2022-09-28T00:19:56.357Z,48.80
2022-09-28T00:22:24.501Z,48.80
2022-09-28T00:24:51.347Z,49.20
2022-09-28T00:27:18.141Z,49.00
2022-09-28T00:29:44.948Z,49.00
2022-09-28T00:32:13.451Z,48.70
2022-09-28T00:34:42.123Z,48.90
2022-09-28T00:37:32.164Z,49.20
2022-09-28T00:39:59.029Z,49.10
2022-09-28T00:42:26.760Z,48.90
2022-09-28T00:44:54.117Z,48.90
2022-09-28T00:47:34.875Z,49.00
2022-09-28T00:50:05.485Z,49.00
2022-09-28T00:52:36.625Z,48.70
2022-09-28T00:55:06.713Z,48.80
2022-09-28T00:57:34.421Z,49.30
2022-09-28T01:00:02.854Z,49.10
2022-09-28T01:02:29.823Z,49.30
2022-09-28T01:04:57.982Z,49.00
2022-09-28T01:07:25.232Z,49.70
2022-09-28T01:09:53.918Z,49.30
2022-09-28T01:12:20.727Z,49.00
2022-09-28T01:14:49.085Z,49.10
2022-09-28T01:17:17.838Z,49.30
2022-09-28T01:20:10.521Z,49.20
2022-09-28T01:23:30.073Z,49.70
2022-09-28T01:26:15.290Z,49.10
2022-09-28T01:28:43.860Z,49.40
2022-09-28T01:31:13.270Z,48.70
2022-09-28T01:33:44.755Z,48.90
2022-09-28T01:36:17.968Z,48.80
2022-09-28T01:38:48.723Z,48.80
2022-09-28T01:41:18.108Z,48.50
2022-09-28T01:43:49.629Z,48.60
2022-09-28T01:46:20.284Z,48.30
2022-09-28T01:48:51.591Z,48.30
2022-09-28T01:51:25.111Z,48.30
2022-09-28T01:53:57.266Z,48.20
2022-09-28T01:56:28.498Z,48.20
2022-09-28T01:59:00.159Z,48.30
2022-09-28T02:01:33.305Z,48.00
2022-09-28T02:04:05.076Z,47.90
2022-09-28T02:06:36.654Z,47.60
2022-09-28T02:09:08.621Z,47.90
2022-09-28T02:11:38.462Z,47.70
2022-09-28T02:14:08.124Z,47.60
2022-09-28T02:16:39.302Z,48.30
2022-09-28T02:19:07.869Z,47.70
2022-09-28T02:21:41.595Z,47.50
2022-09-28T02:24:19.340Z,47.70
2022-09-28T02:26:51.890Z,48.00
2022-09-28T02:29:19.106Z,47.90
2022-09-28T02:31:46.258Z,47.90
2022-09-28T02:34:13.071Z,47.90
2022-09-28T02:36:39.876Z,47.90
2022-09-28T02:39:13.419Z,48.00
2022-09-28T02:41:54.885Z,48.40
2022-09-28T02:44:36.688Z,48.20
2022-09-28T02:47:13.381Z,47.80
2022-09-28T02:49:46.976Z,47.90
2022-09-28T02:52:26.720Z,48.20
2022-09-28T02:55:20.079Z,48.30
2022-09-28T02:58:04.917Z,48.20
2022-09-28T03:00:37.709Z,48.20
2022-09-28T03:03:12.840Z,48.10
2022-09-28T03:05:47.382Z,48.30
2022-09-28T03:08:20.932Z,48.00
2022-09-28T03:10:50.725Z,48.00
2022-09-28T03:13:19.349Z,47.90
2022-09-28T03:15:48.828Z,47.80
2022-09-28T03:18:16.780Z,47.90
2022-09-28T03:20:43.720Z,47.70
2022-09-28T03:23:24.510Z,47.70
2022-09-28T03:25:51.833Z,48.10
2022-09-28T03:28:20.226Z,48.10
2022-09-28T03:30:47.063Z,47.90
2022-09-28T03:33:13.847Z,47.70
2022-09-28T03:35:40.701Z,47.40
2022-09-28T03:38:07.576Z,47.40
2022-09-28T03:40:34.380Z,47.70
2022-09-28T03:43:01.477Z,48.40
2022-09-28T03:45:29.724Z,47.90
2022-09-28T03:47:56.605Z,47.80
2022-09-28T03:50:23.406Z,48.20
2022-09-28T03:52:50.176Z,47.70
2022-09-28T03:55:17.348Z,47.50
2022-09-28T03:57:44.204Z,47.50
2022-09-28T04:00:11.944Z,47.40
2022-09-28T04:02:40.178Z,47.30
2022-09-28T04:05:07.342Z,47.40
2022-09-28T04:07:34.160Z,47.30
2022-09-28T04:10:00.933Z,47.30
2022-09-28T04:12:27.686Z,47.30
2022-09-28T04:14:54.566Z,47.40
2022-09-28T04:17:21.363Z,47.30
2022-09-28T04:19:49.593Z,47.50
2022-09-28T04:22:16.388Z,47.70
2022-09-28T04:24:43.216Z,47.70
2022-09-28T04:27:10.074Z,47.80
2022-09-28T04:29:37.169Z,47.90
2022-09-28T04:32:04.054Z,47.90
2022-09-28T04:34:35.749Z,47.90
2022-09-28T04:37:05.535Z,48.20
2022-09-28T04:39:32.330Z,48.20
2022-09-28T04:41:59.165Z,48.40
2022-09-28T04:44:25.973Z,48.30
2022-09-28T04:46:55.009Z,48.60
2022-09-28T04:49:21.842Z,48.20
2022-09-28T04:51:48.637Z,48.30
2022-09-28T04:54:16.844Z,48.10
2022-09-28T04:56:43.669Z,48.30
2022-09-28T04:59:10.475Z,48.00
2022-09-28T05:01:37.336Z,48.00
2022-09-28T05:04:04.281Z,47.90
2022-09-28T05:06:31.059Z,48.00
2022-09-28T05:08:57.822Z,48.00
2022-09-28T05:11:26.090Z,47.90
2022-09-28T05:13:52.875Z,47.90
2022-09-28T05:16:19.657Z,47.80
2022-09-28T05:18:46.520Z,47.80
2022-09-28T05:21:15.524Z,48.00
2022-09-28T05:23:47.062Z,47.90
2022-09-28T05:26:14.052Z,48.10
2022-09-28T05:28:42.439Z,47.90
2022-09-28T05:31:09.285Z,47.80
2022-09-28T05:33:36.335Z,47.90
2022-09-28T05:36:03.503Z,48.30
2022-09-28T05:38:30.781Z,48.00
2022-09-28T05:40:57.830Z,48.00
2022-09-28T05:43:24.786Z,48.30
2022-09-28T05:45:55.687Z,48.20
2022-09-28T05:48:22.933Z,48.10
2022-09-28T05:50:50.902Z,47.90
2022-09-28T05:53:17.765Z,48.10
2022-09-28T05:55:44.553Z,47.90
2022-09-28T05:58:11.548Z,47.90
2022-09-28T06:00:38.308Z,47.90
2022-09-28T06:03:09.423Z,48.20
2022-09-28T06:05:37.801Z,48.10
2022-09-28T06:08:05.900Z,48.20
2022-09-28T06:10:33.293Z,48.00
2022-09-28T06:13:00.847Z,48.30
2022-09-28T06:15:29.050Z,47.90
2022-09-28T06:17:57.050Z,48.10
2022-09-28T06:20:41.330Z,48.10
2022-09-28T06:23:15.426Z,48.60
2022-09-28T06:25:42.224Z,48.40
2022-09-28T06:28:10.982Z,48.30
2022-09-28T06:30:39.062Z,48.40
2022-09-28T06:33:08.004Z,48.30
2022-09-28T06:35:36.452Z,48.30
2022-09-28T06:38:04.190Z,48.40
2022-09-28T06:40:31.828Z,48.20
2022-09-28T06:43:00.343Z,48.50
2022-09-28T06:45:30.368Z,48.50
2022-09-28T06:47:58.710Z,48.80
2022-09-28T06:50:26.558Z,48.80
2022-09-28T06:52:55.450Z,48.70
2022-09-28T06:55:22.412Z,48.70
2022-09-28T06:57:57.087Z,48.50
2022-09-28T07:00:23.878Z,49.00
2022-09-28T07:02:50.817Z,48.80
2022-09-28T07:05:17.817Z,48.30
2022-09-28T07:07:44.592Z,48.40
2022-09-28T07:10:12.977Z,48.60
2022-09-28T07:12:39.772Z,48.90
2022-09-28T07:15:07.886Z,48.60
2022-09-28T07:17:41.459Z,48.50
2022-09-28T07:20:19.178Z,48.40
2022-09-28T07:22:46.391Z,48.20
2022-09-28T07:25:14.653Z,48.30
2022-09-28T07:27:41.473Z,48.10
2022-09-28T07:30:09.224Z,48.20
2022-09-28T07:32:35.983Z,48.40
2022-09-28T07:35:02.903Z,48.30
2022-09-28T07:37:29.693Z,48.50
2022-09-28T07:39:56.459Z,49.00
2022-09-28T07:42:25.581Z,49.00
2022-09-28T07:44:52.325Z,49.40
2022-09-28T07:47:19.109Z,49.20
2022-09-28T07:49:45.855Z,49.20
2022-09-28T07:52:12.643Z,48.80
2022-09-28T07:54:39.392Z,48.70
2022-09-28T07:57:06.244Z,49.00
2022-09-28T07:59:34.569Z,49.30
2022-09-28T08:02:01.451Z,49.80
2022-09-28T08:04:28.307Z,49.00
2022-09-28T08:06:55.155Z,49.30
2022-09-28T08:09:22.033Z,49.20
2022-09-28T08:11:48.776Z,49.20
2022-09-28T08:14:15.613Z,49.00
2022-09-28T08:16:43.823Z,50.00
2022-09-28T08:19:10.685Z,49.90
2022-09-28T08:21:37.655Z,50.20
2022-09-28T08:24:04.878Z,50.00
2022-09-28T08:26:31.863Z,49.90
2022-09-28T08:28:58.638Z,49.80
2022-09-28T08:31:25.447Z,49.50
2022-09-28T08:33:53.664Z,49.90
2022-09-28T08:36:20.693Z,49.80
2022-09-28T08:38:47.486Z,49.40
2022-09-28T08:41:19.053Z,49.70
2022-09-28T08:44:02.724Z,49.80
2022-09-28T08:46:34.560Z,50.10
2022-09-28T08:49:24.910Z,49.80
2022-09-28T08:51:57.889Z,49.40
2022-09-28T08:54:46.203Z,49.30
2022-09-28T08:57:16.329Z,49.30
2022-09-28T08:59:50.331Z,49.70
2022-09-28T09:02:22.514Z,49.80
2022-09-28T09:04:51.224Z,49.60
2022-09-28T09:07:53.420Z,49.10
2022-09-28T09:10:37.128Z,48.90
2022-09-28T09:13:13.296Z,49.00
2022-09-28T09:15:46.849Z,49.20
2022-09-28T09:18:22.164Z,48.90
2022-09-28T09:20:55.605Z,48.90
2022-09-28T09:23:34.162Z,48.90
2022-09-28T09:26:13.641Z,48.90
2022-09-28T09:29:08.774Z,49.00
2022-09-28T09:31:51.154Z,49.60
2022-09-28T09:34:42.276Z,48.70
2022-09-28T09:37:21.744Z,49.20
2022-09-28T09:40:03.699Z,49.30
2022-09-28T09:42:45.136Z,49.30
2022-09-28T09:45:31.190Z,49.10
2022-09-28T09:48:03.555Z,49.30
2022-09-28T09:50:35.631Z,49.20
2022-09-28T09:53:13.054Z,49.40
2022-09-28T09:55:43.809Z,49.30
2022-09-28T09:58:15.414Z,49.10
2022-09-28T10:00:45.671Z,48.90
2022-09-28T10:03:21.414Z,48.60
2022-09-28T10:05:54.565Z,48.90
2022-09-28T10:08:24.307Z,48.90
2022-09-28T10:10:55.232Z,48.80
2022-09-28T10:13:22.114Z,49.10
2022-09-28T10:15:49.596Z,48.90
2022-09-28T10:18:20.144Z,49.10
2022-09-28T10:20:47.156Z,49.00
2022-09-28T10:23:20.741Z,48.70
2022-09-28T10:25:51.361Z,48.30
2022-09-28T10:28:23.808Z,48.60
2022-09-28T10:30:50.743Z,48.60
2022-09-28T10:33:31.735Z,48.70
2022-09-28T10:36:00.048Z,48.90
2022-09-28T10:38:28.306Z,49.20
2022-09-28T10:40:59.988Z,49.00
2022-09-28T10:43:29.180Z,49.20
2022-09-28T10:46:05.545Z,49.20
2022-09-28T10:48:48.446Z,49.90
2022-09-28T10:51:16.127Z,49.60
2022-09-28T10:53:57.098Z,49.20
2022-09-28T10:56:28.912Z,49.60
2022-09-28T10:58:56.134Z,49.00
2022-09-28T11:01:25.968Z,48.90
2022-09-28T11:03:56.075Z,49.50
2022-09-28T11:06:25.788Z,49.50
2022-09-28T11:08:54.761Z,49.40
2022-09-28T11:11:22.874Z,49.40
2022-09-28T11:13:53.357Z,49.90
2022-09-28T11:16:23.025Z,49.90
2022-09-28T11:18:49.843Z,49.80
2022-09-28T11:21:18.593Z,49.80
2022-09-28T11:24:03.656Z,49.60
2022-09-28T11:26:37.470Z,49.60
2022-09-28T11:29:06.784Z,49.50
2022-09-28T11:31:36.181Z,49.40
2022-09-28T11:34:07.282Z,49.50
2022-09-28T11:36:55.019Z,49.70
2022-09-28T11:39:31.474Z,49.30
2022-09-28T11:42:16.088Z,49.50
2022-09-28T11:44:46.087Z,50.10
2022-09-28T11:47:50.719Z,49.00
2022-09-28T11:50:26.744Z,49.30
2022-09-28T11:52:59.880Z,48.90
2022-09-28T11:55:33.023Z,49.10
2022-09-28T11:58:06.300Z,49.50
2022-09-28T12:00:41.014Z,49.80
2022-09-28T12:03:14.420Z,49.60
2022-09-28T12:05:49.462Z,49.40
2022-09-28T12:08:21.487Z,49.40
2022-09-28T12:10:55.449Z,49.80
2022-09-28T12:13:26.431Z,49.40
2022-09-28T12:16:23.469Z,49.10
2022-09-28T12:18:50.377Z,49.20
2022-09-28T12:21:30.547Z,48.90
2022-09-28T12:24:03.765Z,49.10
2022-09-28T12:26:38.001Z,49.00
2022-09-28T12:29:11.603Z,49.30
2022-09-28T12:31:47.990Z,49.20
2022-09-28T12:34:14.837Z,49.60
2022-09-28T12:36:52.021Z,49.70
2022-09-28T12:39:46.707Z,50.50
2022-09-28T12:42:33.151Z,49.90
2022-09-28T12:45:21.775Z,49.40
2022-09-28T12:48:25.164Z,49.50
2022-09-28T12:51:03.526Z,49.60
2022-09-28T12:53:51.075Z,50.20
2022-09-28T12:56:26.137Z,50.60
2022-09-28T12:59:02.209Z,50.60
2022-09-28T13:01:44.606Z,51.00
2022-09-28T13:04:39.007Z,51.10
2022-09-28T13:07:09.271Z,51.20
2022-09-28T13:09:47.150Z,51.10
2022-09-28T13:12:30.801Z,51.40
2022-09-28T13:15:31.346Z,51.30
2022-09-28T13:18:04.801Z,51.40
2022-09-28T13:21:07.949Z,51.40
2022-09-28T13:23:39.300Z,52.00
2022-09-28T13:26:16.996Z,51.30
2022-09-28T13:28:45.890Z,51.10
2022-09-28T13:31:17.940Z,50.70
2022-09-28T13:33:47.018Z,50.70
2022-09-28T13:36:54.985Z,50.70
2022-09-28T13:39:46.748Z,51.10
2022-09-28T13:42:25.232Z,51.00
2022-09-28T13:45:17.533Z,51.20
2022-09-28T13:48:11.038Z,50.90
2022-09-28T13:50:51.046Z,50.80
2022-09-28T13:53:27.403Z,51.00
2022-09-28T13:56:04.835Z,51.00
2022-09-28T13:58:38.459Z,51.00
2022-09-28T14:01:15.597Z,51.10
2022-09-28T14:03:53.388Z,51.40
2022-09-28T14:06:28.050Z,51.00
2022-09-28T14:09:40.299Z,51.00
2022-09-28T14:12:30.139Z,50.80
2022-09-28T14:14:57.166Z,50.80
2022-09-28T14:17:51.127Z,51.30
2022-09-28T14:20:22.158Z,51.50
2022-09-28T14:23:18.570Z,51.90
2022-09-28T14:26:14.918Z,51.90
2022-09-28T14:28:50.190Z,52.20
2022-09-28T14:31:36.744Z,52.30
2022-09-28T14:34:03.845Z,52.20
2022-09-28T14:36:37.721Z,52.30
2022-09-28T14:39:04.853Z,52.60
2022-09-28T14:41:42.769Z,52.10
2022-09-28T14:44:11.603Z,51.90
2022-09-28T14:46:40.742Z,51.30
2022-09-28T14:49:40.934Z,51.30
2022-09-28T14:52:12.295Z,51.10
2022-09-28T14:54:53.229Z,51.00
2022-09-28T14:57:25.514Z,51.10
2022-09-28T14:59:52.905Z,51.10
2022-09-28T15:02:26.331Z,51.30
2022-09-28T15:04:55.887Z,51.70
2022-09-28T15:07:25.656Z,51.20
2022-09-28T15:09:53.722Z,50.90
2022-09-28T15:12:25.630Z,50.70
2022-09-28T15:14:55.207Z,50.80
2022-09-28T15:17:24.974Z,50.90
2022-09-28T15:20:09.993Z,51.10
2022-09-28T15:22:37.681Z,51.20
2022-09-28T15:25:13.516Z,50.80
2022-09-28T15:27:41.720Z,51.00
2022-09-28T15:30:24.992Z,51.10
2022-09-28T15:32:52.256Z,51.40
2022-09-28T15:35:22.040Z,51.20
2022-09-28T15:37:50.010Z,51.10
2022-09-28T15:40:19.307Z,51.20
2022-09-28T15:42:47.606Z,51.20
2022-09-28T15:45:23.305Z,51.20
2022-09-28T15:47:50.489Z,51.50
2022-09-28T15:50:22.719Z,51.10
2022-09-28T15:52:54.480Z,51.20
2022-09-28T15:55:24.686Z,51.20
2022-09-28T15:58:05.728Z,51.10
2022-09-28T16:00:33.066Z,51.00
2022-09-28T16:03:17.806Z,51.10
2022-09-28T16:05:48.166Z,51.40
2022-09-28T16:08:17.346Z,51.70
2022-09-28T16:10:54.975Z,51.90
2022-09-28T16:13:23.386Z,52.00
2022-09-28T16:15:54.709Z,51.70
2022-09-28T16:18:21.800Z,51.90
2022-09-28T16:20:51.248Z,52.00
2022-09-28T16:23:23.332Z,52.50
2022-09-28T16:25:53.921Z,52.70
2022-09-28T16:28:47.748Z,52.70
2022-09-28T16:31:28.663Z,52.80
2022-09-28T16:33:58.116Z,52.90
2022-09-28T16:36:27.463Z,53.00
2022-09-28T16:38:54.267Z,52.90
2022-09-28T16:41:23.836Z,52.90
2022-09-28T16:43:57.331Z,52.80
2022-09-28T16:46:31.108Z,52.70
2022-09-28T16:48:58.020Z,52.60
2022-09-28T16:51:24.773Z,52.60
2022-09-28T16:53:51.530Z,52.60
2022-09-28T16:56:18.344Z,52.70
2022-09-28T16:58:45.172Z,52.70
2022-09-28T17:01:13.402Z,53.20
2022-09-28T17:03:40.720Z,53.50
2022-09-28T17:06:11.636Z,53.50
2022-09-28T17:08:38.407Z,53.50
2022-09-28T17:11:24.531Z,53.70
2022-09-28T17:13:52.202Z,53.80
2022-09-28T17:16:42.688Z,53.60
2022-09-28T17:19:18.636Z,53.60
2022-09-28T17:21:45.810Z,53.40
2022-09-28T17:24:12.699Z,52.90
2022-09-28T17:26:40.238Z,52.60
2022-09-28T17:29:06.978Z,52.50
2022-09-28T17:31:35.146Z,52.60
2022-09-28T17:34:01.985Z,52.60
2022-09-28T17:36:28.772Z,52.20
2022-09-28T17:38:55.516Z,51.90
2022-09-28T17:41:22.252Z,51.80
2022-09-28T17:43:49.389Z,51.40
2022-09-28T17:46:25.794Z,51.00
2022-09-28T17:48:54.342Z,51.00
2022-09-28T17:51:21.100Z,50.80
2022-09-28T17:53:49.050Z,50.70
2022-09-28T17:56:15.857Z,50.60
2022-09-28T17:58:42.660Z,50.50
2022-09-28T18:01:09.866Z,50.60
2022-09-28T18:03:36.691Z,51.00
2022-09-28T18:06:06.731Z,50.90
2022-09-28T18:08:34.082Z,50.90
2022-09-28T18:11:01.277Z,50.80
2022-09-28T18:13:28.409Z,50.60
2022-09-28T18:15:56.324Z,50.70
2022-09-28T18:18:24.053Z,50.60
2022-09-28T18:20:51.147Z,50.50
2022-09-28T18:23:19.465Z,50.50
2022-09-28T18:25:47.072Z,50.60
2022-09-28T18:28:14.727Z,51.10
2022-09-28T18:30:43.143Z,50.40
2022-09-28T18:33:11.861Z,50.60
2022-09-28T18:35:38.984Z,50.70
2022-09-28T18:38:06.955Z,50.90
2022-09-28T18:40:35.780Z,51.10
2022-09-28T18:43:02.942Z,51.00
2022-09-28T18:45:29.832Z,51.00
2022-09-28T18:47:57.415Z,50.90
2022-09-28T18:50:24.259Z,51.10
2022-09-28T18:52:51.029Z,51.40
2022-09-28T18:55:17.961Z,51.50
2022-09-28T18:57:46.885Z,51.30
2022-09-28T19:00:14.721Z,51.10
2022-09-28T19:02:41.593Z,50.80
2022-09-28T19:05:08.842Z,50.70
2022-09-28T19:07:35.633Z,50.70
2022-09-28T19:10:02.568Z,50.50
2022-09-28T19:12:29.559Z,50.50
2022-09-28T19:14:57.787Z,50.40
2022-09-28T19:17:24.598Z,50.40
2022-09-28T19:19:51.447Z,50.30
2022-09-28T19:22:18.238Z,50.40
2022-09-28T19:24:45.030Z,50.40
2022-09-28T19:27:11.920Z,50.50
2022-09-28T19:29:38.750Z,50.50
2022-09-28T19:32:07.018Z,50.30
2022-09-28T19:34:33.896Z,50.40
2022-09-28T19:37:00.855Z,50.40
2022-09-28T19:39:27.721Z,50.40
2022-09-28T19:41:54.562Z,50.60
2022-09-28T19:44:25.083Z,50.70
2022-09-28T19:46:53.862Z,50.90
2022-09-28T19:49:23.224Z,51.00
2022-09-28T19:52:11.690Z,51.00
2022-09-28T19:54:38.070Z,50.80
2022-09-28T19:57:05.006Z,50.70
2022-09-28T19:59:31.792Z,50.90
2022-09-28T20:01:58.698Z,50.80
2022-09-28T20:04:27.078Z,51.90
2022-09-28T20:06:53.947Z,51.50
2022-09-28T20:09:20.852Z,52.40
2022-09-28T20:11:47.835Z,51.50
2022-09-28T20:14:14.850Z,51.60
2022-09-28T20:16:41.807Z,51.40
2022-09-28T20:19:08.637Z,51.30
2022-09-28T20:21:36.825Z,51.80
2022-09-28T20:24:03.825Z,51.40
2022-09-28T20:26:30.866Z,51.40
2022-09-28T20:28:57.742Z,51.70
2022-09-28T20:31:25.454Z,51.40
2022-09-28T20:33:52.933Z,51.50
2022-09-28T20:36:21.084Z,51.30
2022-09-28T20:38:50.237Z,51.60
2022-09-28T20:41:19.581Z,51.60
2022-09-28T20:43:46.937Z,51.60
2022-09-28T20:46:14.552Z,51.60
2022-09-28T20:48:41.424Z,51.50
2022-09-28T20:51:11.144Z,51.90
2022-09-28T20:53:39.227Z,52.00
2022-09-28T20:56:10.934Z,52.30
2022-09-28T20:58:38.960Z,52.50
2022-09-28T21:01:07.815Z,52.00
2022-09-28T21:03:34.908Z,51.90
2022-09-28T21:06:01.809Z,51.50
2022-09-28T21:08:28.625Z,51.50
2022-09-28T21:10:55.468Z,51.70
2022-09-28T21:13:25.073Z,51.80
2022-09-28T21:15:53.001Z,51.90
2022-09-28T21:18:20.236Z,52.00
2022-09-28T21:20:47.338Z,51.70
2022-09-28T21:23:14.408Z,51.40
2022-09-28T21:25:41.235Z,51.50
2022-09-28T21:28:08.450Z,51.40
2022-09-28T21:30:36.740Z,51.40
2022-09-28T21:33:03.633Z,51.10
2022-09-28T21:35:30.600Z,50.80
2022-09-28T21:37:57.607Z,50.80
2022-09-28T21:40:24.576Z,50.70
2022-09-28T21:42:51.441Z,50.60
2022-09-28T21:45:18.598Z,50.70
2022-09-28T21:47:46.912Z,51.30
2022-09-28T21:50:14.128Z,51.10
2022-09-28T21:52:40.969Z,50.70
2022-09-28T21:55:08.825Z,50.70
2022-09-28T21:57:35.635Z,50.70
2022-09-28T22:00:02.701Z,50.50
2022-09-28T22:02:29.575Z,50.60
2022-09-28T22:04:57.991Z,50.80
2022-09-28T22:07:24.899Z,50.50
2022-09-28T22:09:53.583Z,50.50
2022-09-28T22:12:20.633Z,50.30
2022-09-28T22:14:47.451Z,50.30
2022-09-28T22:17:14.291Z,50.40
2022-09-28T22:19:41.132Z,50.20
2022-09-28T22:22:09.352Z,50.20
2022-09-28T22:24:36.225Z,50.30
2022-09-28T22:27:03.166Z,50.10
2022-09-28T22:29:29.953Z,50.30
2022-09-28T22:31:56.974Z,50.40
2022-09-28T22:34:23.794Z,50.70
2022-09-28T22:36:50.620Z,50.40
2022-09-28T22:39:18.908Z,50.30
2022-09-28T22:41:45.739Z,50.40
2022-09-28T22:44:12.682Z,50.40
2022-09-28T22:46:39.618Z,50.30
2022-09-28T22:49:09.952Z,50.20
2022-09-28T22:51:37.007Z,50.20
2022-09-28T22:54:03.903Z,50.00
2022-09-28T22:56:32.173Z,50.80
2022-09-28T22:58:59.106Z,50.50
2022-09-28T23:01:27.572Z,50.40
2022-09-28T23:03:55.703Z,50.40
2022-09-28T23:06:25.344Z,50.20
2022-09-28T23:08:53.025Z,50.30
2022-09-28T23:11:20.180Z,50.20
2022-09-28T23:13:50.703Z,50.50
2022-09-28T23:16:18.025Z,50.60
2022-09-28T23:18:44.883Z,50.50
2022-09-28T23:21:13.824Z,50.40
2022-09-28T23:23:40.931Z,50.40
2022-09-28T23:26:12.486Z,50.30
2022-09-28T23:28:39.439Z,50.40
2022-09-28T23:31:12.165Z,50.30
2022-09-28T23:33:39.210Z,50.50
2022-09-28T23:36:06.876Z,50.10
2022-09-28T23:38:34.401Z,50.30
2022-09-28T23:41:01.353Z,50.50
2022-09-28T23:43:28.371Z,50.50
2022-09-28T23:45:55.331Z,50.40
2022-09-28T23:48:23.677Z,50.50
2022-09-28T23:50:50.586Z,50.40
2022-09-28T23:53:17.412Z,50.40
2022-09-28T23:55:44.767Z,50.50
2022-09-28T23:58:12.270Z,50.50
